CDT,Max TemperatureF,Mean TemperatureF,Min TemperatureF,Max Dew PointF,MeanDew PointF,Min DewpointF,Max Humidity, Mean Humidity, Min Humidity, Max Sea Level PressureIn, Mean Sea Level PressureIn, Min Sea Level PressureIn, Max VisibilityMiles, Mean VisibilityMiles, Min VisibilityMiles, Max Wind SpeedMPH, Mean Wind SpeedMPH, Max Gust SpeedMPH,PrecipitationIn, CloudCover, Events, WindDirDegrees
2013-8-1,78,64,50,64,55,48,100,71,44,30.05,29.99,29.88,10,10,10,8,3,,0.00,1,,259
2013-8-2,73,63,53,61,55,52,100,71,47,30.05,29.94,29.86,10,10,10,10,5,9,0.00,1,,309
2013-8-3,75,62,48,55,52,48,100,71,41,30.21,30.14,30.05,10,10,5,13,2,,0.00,1,,305
2013-8-4,69,58,46,57,53,46,100,79,56,30.24,30.16,30.03,10,10,10,5,1,,0.00,1,,126
2013-8-5,75,65,55,66,62,54,100,88,69,30.03,29.89,29.81,10,9,1,8,2,,0.00,5,Rain-Thunderstorm,209
2013-8-6,82,68,55,66,61,55,100,83,54,29.86,29.80,29.71,10,9,3,30,4,38,0.00,1,Rain-Thunderstorm,222
2013-8-7,73,63,53,61,56,48,100,78,43,30.04,29.94,29.80,10,10,7,12,6,17,0.00,3,,339
2013-8-8,71,60,50,61,56,48,100,84,57,30.06,30.03,30.00,10,10,5,7,1,,0.00,2,Rain,241
2013-8-9,71,63,55,59,55,52,100,77,53,30.14,30.06,30.01,10,10,5,17,5,23,0.00,1,,288
2013-8-10,73,65,57,61,55,48,100,75,46,30.20,30.16,30.10,10,10,5,8,1,,0.00,5,,296
2013-8-11,77,68,60,64,61,57,100,85,65,30.10,30.06,30.01,10,9,3,5,1,,0.00,5,,97
2013-8-12,75,67,59,63,58,54,100,73,47,30.07,30.03,30.01,10,9,4,14,5,20,0.00,1,,309
2013-8-13,73,60,48,55,50,45,100,73,38,30.20,30.16,30.08,10,10,5,12,2,16,0.00,2,,26
2013-8-14,75,60,46,54,51,46,100,71,38,30.21,30.17,30.12,10,10,7,9,2,,0.00,2,,261
2013-8-15,75,62,48,57,53,46,100,72,41,30.15,30.12,30.09,10,10,5,7,1,,0.00,2,,216
2013-8-16,77,64,51,59,55,52,100,72,41,30.21,30.18,30.14,10,10,5,6,2,,0.00,2,,231
2013-8-17,78,63,48,57,54,48,100,73,39,30.22,30.18,30.12,10,9,1,12,2,17,0.00,1,,196
2013-8-18,80,66,53,61,56,52,100,72,42,30.15,30.10,30.03,10,10,7,12,3,21,0.00,1,,187
2013-8-19,82,70,57,66,62,57,100,74,58,30.05,29.98,29.92,10,10,7,10,3,17,0.00,2,,186
2013-8-20,87,76,66,73,68,63,89,76,58,29.94,29.91,29.88,10,10,7,12,6,18,0.04,2,,177
2013-8-21,82,75,68,73,70,66,100,87,70,30.00,29.92,29.86,10,8,0,7,3,,0.23,1,Fog-Rain-Thunderstorm,215
2013-8-22,82,70,59,70,59,52,100,69,39,30.13,30.09,30.01,10,9,1,13,3,17,0.00,1,Thunderstorm,47
2013-8-23,82,68,53,66,61,52,100,79,54,30.16,30.11,30.06,10,10,10,9,2,,0.00,0,,147
2013-8-24,86,76,66,72,67,63,94,75,58,30.10,30.04,29.97,10,10,7,17,7,24,0.00,1,,167
2013-8-25,91,83,75,73,71,68,83,70,55,30.04,30.00,29.96,10,10,10,15,9,24,0.00,0,,198
2013-8-26,91,83,75,75,73,72,89,72,55,30.02,29.95,29.86,10,10,7,13,6,17,0.00,0,,210
2013-8-27,91,81,71,77,72,70,94,72,55,29.93,29.85,29.82,10,10,10,8,3,,0.00,1,,270
2013-8-28,87,76,64,73,70,64,100,84,55,30.02,29.98,29.93,10,7,0,8,2,,0.00,1,Fog,108
2013-8-29,91,80,69,73,70,66,100,77,43,30.02,29.95,29.87,10,8,3,14,3,20,0.00,2,Thunderstorm,178
2013-8-30,80,71,62,72,66,61,94,76,58,29.93,29.89,29.83,10,10,10,12,5,21,0.00,2,,3
2013-8-31,84,70,57,72,64,57,100,82,55,29.90,29.85,29.74,10,9,0,16,2,20,0.08,1,Fog-Rain,174